Terminal Aerodrome Forecast
Issued by NWS

Home | Current Version | Previous Version | Text Only | Print | Product List | Glossary On
Versions: 1 2 3 4 5 6 7 8 9 10 11 12 13
000
FTUS46 KMTR 291734
TAFOAK
TAF
KOAK 291734Z 2918/3024 30009KT P6SM SKC
     FM292200 30013KT P6SM SKC
     FM300400 30006KT P6SM SKC
     FM301200 29004KT P6SM SCT012
     FM302100 30016KT P6SM FEW012 SCT250=

USA.gov is the U.S. government's official web portal to all federal, state and local government web resources and services.